Stolt Skua — ZCPQ2 — position and weather

sailwx.info

Track history (hours):
 
Tides and Currents Weather Stations Pressure Air Temp Water Temp Dewpoint Dewpoint Depression Visibility Wind Speed Wind Dir Waves Ship Positions

Stolt Skua

Last reported at 2018-Feb-22 04:32 UTC. Time now 2018-Feb-22 16:50 UTC.
Position N 29°45' W 095°04'.

Length 112 m; draft 4.9 m.

Type: Tanker. MMSI: 319121000.

Date/timePositionNaut miles runAvg speedWind from/ knotsBaromVisibWave heightAir tempDewpointWater temp
2018-Feb-22 04:32N 29°45' W 095°04'110.4
2018-Feb-22 04:29N 29°45' W 095°04'4 7.5
2018-Feb-22 04:01N 29°42' W 095°01'611.3
2018-Feb-22 03:30N 29°37' W 094°58'611.2
2018-Feb-22 03:00N 29°33' W 094°54'22 0.6
2018-Feb-20 13:34N 29°16' W 094°38'0 0.0
2018-Feb-20 13:22N 29°16' W 094°38'0 0.0
2018-Feb-20 06:46N 29°16' W 094°38'0 0.0
2018-Feb-19 16:43N 29°15' W 094°38'0 0.1
2018-Feb-19 16:28N 29°15' W 094°38'0 0.0
2018-Feb-19 15:58N 29°15' W 094°38'0 0.0
2018-Feb-19 15:25N 29°15' W 094°38'0 0.0
2018-Feb-19 14:19N 29°15' W 094°38'0 0.0
2018-Feb-19 10:46N 29°16' W 094°38'0 0.0
2018-Feb-19 10:25N 29°16' W 094°38'0 0.0
2018-Feb-19 09:58N 29°16' W 094°38'0 0.0
2018-Feb-19 09:25N 29°16' W 094°38'0 0.0
2018-Feb-19 08:49N 29°16' W 094°38'0 0.0
2018-Feb-19 08:25N 29°16' W 094°38'0 0.0
2018-Feb-19 07:58N 29°16' W 094°38'0 0.0
2018-Feb-19 06:31N 29°16' W 094°38'0 0.1
2018-Feb-19 06:25N 29°16' W 094°38'0 0.0
2018-Feb-19 05:49N 29°16' W 094°38'0 0.0
2018-Feb-19 05:22N 29°16' W 094°38'0 0.1
2018-Feb-19 04:58N 29°15' W 094°38'0 0.0
2018-Feb-19 04:28N 29°15' W 094°38'0 0.0
2018-Feb-18 04:55N 29°15' W 094°38'0 0.0
2018-Feb-18 02:40N 29°15' W 094°38'0 0.0
2018-Feb-18 00:07N 29°15' W 094°38'0 0.0
2018-Feb-17 23:46N 29°15' W 094°38'0 0.0
2018-Feb-17 20:44N 29°15' W 094°38'  
2018-Feb-12 22:33N 29°30' W 094°52'111.2
2018-Feb-12 22:30N 29°30' W 094°52'611.2
2018-Feb-12 21:59N 29°35' W 094°56'511.3
2018-Feb-12 21:30N 29°40' W 094°59'  
Track history (hours):
 
Tides and Currents Weather Stations Pressure Air Temp Water Temp Dewpoint Dewpoint Depression Visibility Wind Speed Wind Dir Waves Ship Positions

Stolt Skua

Last reported at 2018-Feb-22 04:32 UTC. Time now 2018-Feb-22 16:50 UTC.
Position N 29°45' W 095°04'.

Length 112 m; draft 4.9 m.

Type: Tanker. MMSI: 319121000.

Date/timePositionNaut miles runAvg speedWind from/ knotsBaromVisibWave heightAir tempDewpointWater temp
2018-Feb-22 04:32N 29°45' W 095°04'110.4
2018-Feb-22 04:29N 29°45' W 095°04'4 7.5
2018-Feb-22 04:01N 29°42' W 095°01'611.3
2018-Feb-22 03:30N 29°37' W 094°58'611.2
2018-Feb-22 03:00N 29°33' W 094°54'22 0.6
2018-Feb-20 13:34N 29°16' W 094°38'0 0.0
2018-Feb-20 13:22N 29°16' W 094°38'0 0.0
2018-Feb-20 06:46N 29°16' W 094°38'0 0.0
2018-Feb-19 16:43N 29°15' W 094°38'0 0.1
2018-Feb-19 16:28N 29°15' W 094°38'0 0.0
2018-Feb-19 15:58N 29°15' W 094°38'0 0.0
2018-Feb-19 15:25N 29°15' W 094°38'0 0.0
2018-Feb-19 14:19N 29°15' W 094°38'0 0.0
2018-Feb-19 10:46N 29°16' W 094°38'0 0.0
2018-Feb-19 10:25N 29°16' W 094°38'0 0.0
2018-Feb-19 09:58N 29°16' W 094°38'0 0.0
2018-Feb-19 09:25N 29°16' W 094°38'0 0.0
2018-Feb-19 08:49N 29°16' W 094°38'0 0.0
2018-Feb-19 08:25N 29°16' W 094°38'0 0.0
2018-Feb-19 07:58N 29°16' W 094°38'0 0.0
2018-Feb-19 06:31N 29°16' W 094°38'0 0.1
2018-Feb-19 06:25N 29°16' W 094°38'0 0.0
2018-Feb-19 05:49N 29°16' W 094°38'0 0.0
2018-Feb-19 05:22N 29°16' W 094°38'0 0.1
2018-Feb-19 04:58N 29°15' W 094°38'0 0.0
2018-Feb-19 04:28N 29°15' W 094°38'0 0.0
2018-Feb-18 04:55N 29°15' W 094°38'0 0.0
2018-Feb-18 02:40N 29°15' W 094°38'0 0.0
2018-Feb-18 00:07N 29°15' W 094°38'0 0.0
2018-Feb-17 23:46N 29°15' W 094°38'0 0.0
2018-Feb-17 20:44N 29°15' W 094°38'  
2018-Feb-12 22:33N 29°30' W 094°52'111.2
2018-Feb-12 22:30N 29°30' W 094°52'611.2
2018-Feb-12 21:59N 29°35' W 094°56'511.3
2018-Feb-12 21:30N 29°40' W 094°59'  

Dump ship's entire track history